Latest Weather Observations for Gosford

IDN60801

Issued at 3:42 pm EST Wednesday 20 June 2018 (issued every 10 minutes, with the page automatically refreshed every 10 minutes)

About weather observations | Map of weather stations | Latest weather observations for NSW | Other Formats
Station Details ID: 061425 Name: GOSFORD AWS Lat: -33.44 Lon: 151.36 Height: 7.0 m
Data from the previous 72 hours. | See also: Recent months at Gosford
Date/Time
EST
Temp
°C
App
Temp
°C
Dew
Point
°C
Rel
Hum
%
Delta-T
°C
Wind Press
QNH
hPa
Press
MSL
hPa
Rain since
9am
mm
Dir  Spd
km/h
Gust
km/h
Spd
kts
Gust
kts
20/03:30pm 16.3 13.7 10.6 69 3.0 S 15 24 8 13 - - 0.0
20/03:00pm 16.6 14.2 10.0 65 3.5 S 13 19 7 10 - - 0.0
20/02:30pm 16.7 13.9 9.9 64 3.6 SSW 15 24 8 13 - - 0.0
20/02:00pm 16.7 14.4 10.3 66 3.4 SSW 13 20 7 11 - - 0.0
20/01:30pm 16.8 14.6 10.9 68 3.2 SSW 13 20 7 11 - - 0.0
20/01:00pm 16.9 14.6 10.5 66 3.4 SSW 13 20 7 11 - - 0.0
20/12:30pm 16.8 14.9 10.4 66 3.4 SSW 11 20 6 11 - - 0.0
20/12:00pm 16.2 14.7 10.5 69 3.0 SSW 9 13 5 7 - - 0.0
20/11:30am 15.7 14.3 10.9 73 2.6 SW 9 13 5 7 - - 0.0
20/11:00am 15.0 14.0 11.0 77 2.1 WSW 7 13 4 7 - - 0.0
20/10:30am 14.4 13.3 10.6 78 2.0 WSW 7 15 4 8 - - 0.0
20/10:00am 14.2 13.1 10.8 80 1.8 WSW 7 13 4 7 - - 0.0
20/09:30am 14.0 12.7 11.2 83 1.5 WSW 9 15 5 8 - - 0.0
20/09:00am 13.6 12.8 11.1 85 1.3 W 6 9 3 5 - - 61.0
20/08:30am 12.9 11.9 11.0 88 1.0 WSW 7 13 4 7 - - 61.0
20/08:00am 11.9 11.5 11.0 94 0.5 W 4 6 2 3 - - 61.0
20/07:30am 11.4 10.6 10.9 97 0.3 WSW 6 11 3 6 - - 61.0
20/07:00am 10.9 10.3 10.3 96 0.3 W 4 6 2 3 - - 61.0
20/06:30am 11.4 11.2 10.5 94 0.5 WSW 2 4 1 2 - - 60.8
20/06:00am 12.0 11.8 10.6 91 0.7 S 2 6 1 3 - - 60.6
20/05:30am 12.0 9.7 10.6 91 0.7 SSW 13 22 7 12 - - 60.6
20/05:00am 12.1 9.5 10.8 92 0.7 SW 15 24 8 13 - - 60.6
20/04:30am 11.8 10.4 11.0 95 0.4 SW 9 19 5 10 - - 60.0
20/04:00am 11.8 10.0 11.0 95 0.4 SW 11 20 6 11 - - 58.6
20/03:30am 11.8 9.7 11.0 95 0.4 WSW 13 20 7 11 - - 57.8
20/03:00am 12.0 10.5 10.7 92 0.7 WSW 9 17 5 9 - - 56.0
20/02:30am 12.2 11.2 10.9 92 0.7 WSW 7 13 4 7 - - 55.6
20/02:00am 12.3 11.0 11.2 93 0.6 W 9 17 5 9 - - 55.6
20/01:30am 12.7 11.5 11.6 93 0.6 SW 9 15 5 8 - - 55.0
20/01:00am 12.4 11.5 11.3 93 0.6 SW 7 13 4 7 - - 54.8
20/12:30am 12.5 11.6 11.2 92 0.7 SW 7 13 4 7 - - 54.4
20/12:00am 12.5 11.5 11.1 91 0.7 WSW 7 13 4 7 - - 53.4
 
Date/Time
EST
Temp
°C
App
Temp
°C
Dew
Point
°C
Rel
Hum
%
Delta-T
°C
Wind Press
QNH
hPa
Press
MSL
hPa
Rain since
9am
mm
Dir  Spd
km/h
Gust
km/h
Spd
kts
Gust
kts
19/11:30pm 12.2 11.2 10.9 92 0.7 SW 7 15 4 8 - - 53.2
19/11:00pm 12.4 11.3 10.8 90 0.8 SW 7 13 4 7 - - 51.8
19/10:30pm 12.0 10.5 10.4 90 0.8 SW 9 15 5 8 - - 51.8
19/10:00pm 12.0 10.1 10.4 90 0.8 SW 11 19 6 10 - - 51.8
19/09:30pm 12.2 10.3 10.6 90 0.8 SW 11 19 6 10 - - 51.6
19/09:00pm 12.0 9.3 10.4 90 0.8 SW 15 24 8 13 - - 51.6
19/08:30pm 11.5 9.9 10.2 92 0.7 WSW 9 17 5 9 - - 51.6
19/08:00pm 11.3 9.7 10.2 93 0.6 WSW 9 17 5 9 - - 51.4
19/07:30pm 11.1 8.7 10.2 94 0.5 SSE 13 28 7 15 - - 49.4
19/07:00pm 11.9 10.3 10.3 90 0.8 WSW 9 15 5 8 - - 43.6
19/06:30pm 11.7 9.4 10.4 92 0.7 WSW 13 32 7 17 - - 43.6
19/06:00pm 11.6 8.9 10.2 91 0.7 SW 15 24 8 13 - - 42.2
19/05:30pm 11.3 8.6 10.5 95 0.4 WSW 15 30 8 16 - - 41.8
19/05:00pm 11.0 7.5 10.1 94 0.5 SE 19 35 10 19 - - 36.4
19/04:42pm 10.5 6.8 9.3 92 0.6 ESE 19 59 10 32 - - 24.0
19/04:30pm 12.0 10.5 10.7 92 0.7 S 9 17 5 9 - - 16.6
19/04:00pm 12.3 10.4 10.4 88 1.0 SW 11 22 6 12 - - 13.4
19/03:30pm 12.5 9.4 10.2 86 1.2 SW 17 28 9 15 - - 12.6
19/03:00pm 12.3 9.1 9.9 85 1.2 WSW 17 28 9 15 - - 10.6
19/02:30pm 11.9 9.0 9.8 87 1.1 SW 15 22 8 12 - - 10.2
19/02:00pm 11.8 8.5 9.7 87 1.1 SW 17 30 9 16 - - 9.6
19/01:30pm 13.2 8.6 9.8 80 1.7 SW 24 43 13 23 - - 7.8
19/01:00pm 12.9 8.9 9.2 78 1.9 SW 20 33 11 18 - - 7.6
19/12:30pm 13.0 8.9 10.0 82 1.5 SW 22 37 12 20 - - 7.6
19/12:00pm 13.3 9.9 10.5 83 1.5 SW 19 32 10 17 - - 7.6
19/11:30am 11.9 9.1 10.1 89 0.9 SW 15 28 8 15 - - 7.6
19/11:00am 10.9 9.6 9.8 93 0.6 NW 7 13 4 7 - - 7.4
19/10:30am 10.5 9.3 9.4 93 0.5 SW 6 11 3 6 - - 6.8
19/10:00am 10.4 9.1 9.3 93 0.5 SW 6 11 3 6 - - 4.0
19/09:30am 10.5 9.3 9.6 94 0.5 S 6 11 3 6 - - 3.8
19/09:00am 10.3 8.1 9.4 94 0.4 WSW 11 19 6 10 - - 31.0
19/08:30am 9.7 7.4 9.1 96 0.3 WSW 11 20 6 11 - - 30.4
19/08:00am 9.3 9.0 8.7 96 0.3 CALM 0 6 0 3 - - 25.2
19/07:30am 9.2 8.1 8.4 95 0.4 WNW 4 11 2 6 - - 20.4
19/07:00am 9.3 7.6 8.2 93 0.5 WSW 7 17 4 9 - - 12.8
19/06:30am 9.4 7.3 8.2 92 0.6 WSW 9 19 5 10 - - 8.4
19/06:00am 9.6 5.8 7.5 87 1.0 WSW 17 32 9 17 - - 3.4
19/05:30am 9.8 6.3 7.4 85 1.1 WSW 15 26 8 14 - - 1.4
19/05:00am 10.4 5.9 6.9 79 1.7 WSW 20 35 11 19 - - 0.6
19/04:30am 10.6 6.8 6.0 73 2.1 WSW 15 28 8 15 - - 0.2
19/04:00am 11.2 6.8 4.7 64 2.9 WSW 17 28 9 15 - - 0.0
19/03:30am 11.2 6.7 4.4 63 3.1 WSW 17 33 9 18 - - 0.0
19/03:00am 11.1 6.6 4.1 62 3.1 WSW 17 26 9 14 - - 0.0
19/02:30am 11.2 6.7 4.2 62 3.1 WSW 17 26 9 14 - - 0.0
19/02:00am 11.3 7.2 4.3 62 3.1 WSW 15 28 8 15 - - 0.0
19/01:30am 11.5 7.0 4.0 60 3.3 WSW 17 33 9 18 - - 0.0
19/01:00am 11.6 7.1 4.3 61 3.3 WSW 17 33 9 18 - - 0.0
19/12:30am 11.7 7.8 5.3 65 2.9 WSW 15 24 8 13 - - 0.0
19/12:00am 11.6 7.4 5.5 66 2.8 WSW 17 30 9 16 - - 0.0
 
Date/Time
EST
Temp
°C
App
Temp
°C
Dew
Point
°C
Rel
Hum
%
Delta-T
°C
Wind Press
QNH
hPa
Press
MSL
hPa
Rain since
9am
mm
Dir  Spd
km/h
Gust
km/h
Spd
kts
Gust
kts
18/11:30pm 11.4 8.3 5.7 68 2.6 WSW 11 24 6 13 - - 0.0
18/11:00pm 12.0 7.4 5.6 65 3.0 WSW 19 33 10 18 - - 0.0
18/10:30pm 12.2 8.4 5.8 65 3.0 WSW 15 26 8 14 - - 0.0
18/10:00pm 12.6 9.1 5.5 62 3.3 WSW 13 24 7 13 - - 0.0
18/09:30pm 12.8 9.0 5.9 63 3.2 WSW 15 26 8 14 - - 0.0
18/09:00pm 12.5 9.0 7.0 69 2.6 SW 15 24 8 13 - - 0.0
18/08:30pm 12.1 9.2 8.2 77 1.9 SW 13 19 7 10 - - 0.0
18/08:00pm 11.9 8.0 8.6 80 1.6 SSW 19 32 10 17 - - 0.0
18/07:30pm 11.9 6.5 8.2 78 1.8 SSW 26 44 14 24 - - 0.0
18/07:15pm 12.5 6.8 8.2 75 2.1 SSW 28 46 15 25 - - 0.0
18/07:00pm 12.5 7.2 8.4 76 2.0 SSW 26 39 14 21 - - 0.0
18/06:30pm 13.0 8.6 8.9 76 2.1 SSW 22 37 12 20 - - 0.0
18/06:00pm 12.8 7.5 8.3 74 2.2 S 26 48 14 26 - - 0.0
18/05:30pm 13.7 8.2 9.0 73 2.4 S 28 48 15 26 - - 0.0
18/05:14pm 13.8 8.8 8.0 68 2.9 SSW 24 52 13 28 - - 0.0
18/05:12pm 14.2 9.4 7.5 64 3.3 SSW 22 52 12 28 - - 0.0
18/05:00pm 14.9 10.8 6.0 55 4.3 SSW 17 28 9 15 - - 0.0
18/04:30pm 15.4 11.6 5.9 53 4.6 SW 15 28 8 15 - - 0.0
18/04:00pm 15.6 12.9 7.4 58 4.1 SW 11 15 6 8 - - 0.0
18/03:30pm 14.9 11.9 7.7 62 3.6 SSW 13 20 7 11 - - 0.0
18/03:00pm 15.1 11.2 6.9 58 4.0 SSW 17 28 9 15 - - 0.0
18/02:30pm 15.8 11.8 6.8 55 4.4 SW 17 32 9 17 - - 0.0
18/02:00pm 15.7 11.7 6.7 55 4.4 SW 17 30 9 16 - - 0.0
18/01:30pm 15.2 11.2 6.7 57 4.1 SW 17 32 9 17 - - 0.0
18/01:00pm 14.7 10.1 6.5 58 4.0 SW 20 35 11 19 - - 0.0
18/12:30pm 14.2 10.5 6.3 59 3.8 SW 15 24 8 13 - - 0.0
18/12:00pm 14.1 9.9 5.7 57 4.0 SW 17 26 9 14 - - 0.0
18/11:30am 13.7 8.8 5.3 57 3.9 SW 20 30 11 16 - - 0.0
18/11:00am 13.4 9.1 5.3 58 3.8 SW 17 28 9 15 - - 0.0
18/10:30am 13.0 8.1 5.2 59 3.6 SW 20 33 11 18 - - 0.0
18/10:00am 12.9 7.2 5.1 59 3.6 WSW 24 41 13 22 - - 0.0
18/09:30am 12.4 6.8 5.6 63 3.2 SW 24 43 13 23 - - 0.0
18/09:00am 12.2 7.3 5.1 62 3.3 WSW 20 41 11 22 - - 0.0
18/08:30am 12.1 6.4 4.8 61 3.3 SW 24 50 13 27 - - 0.0
18/08:00am 11.5 7.1 4.9 64 3.0 WSW 17 32 9 17 - - 0.0
18/07:30am 11.3 6.4 5.2 66 2.8 SW 20 33 11 18 - - 0.0
18/07:00am 11.0 6.8 5.5 69 2.5 WSW 17 30 9 16 - - 0.0
18/06:30am 11.6 6.8 4.8 63 3.1 WSW 19 39 10 21 - - 0.0
18/06:00am 11.6 6.8 4.6 62 3.2 SW 19 37 10 20 - - 0.0
18/05:30am 11.4 7.0 4.6 63 3.1 WSW 17 30 9 16 - - 0.0
18/05:00am 11.3 6.5 4.5 63 3.1 WSW 19 33 10 18 - - 0.0
18/04:30am 10.9 7.6 4.8 66 2.8 W 11 15 6 8 - - 0.0
18/04:00am 10.0 6.8 5.2 72 2.2 WNW 11 17 6 9 - - 0.0
18/03:30am 10.2 7.1 5.4 72 2.2 WNW 11 19 6 10 - - 0.0
18/03:00am 10.2 7.1 5.4 72 2.2 WNW 11 17 6 9 - - 0.0
18/02:30am 10.4 7.2 5.0 69 2.4 NW 11 15 6 8 - - 0.0
18/02:00am 10.6 6.2 4.5 66 2.7 WNW 17 26 9 14 - - 0.0
18/01:30am 10.2 6.5 4.6 68 2.5 WNW 13 19 7 10 - - 0.0
18/01:00am 10.3 6.2 4.2 66 2.7 WNW 15 24 8 13 - - 0.0
18/12:30am 10.4 5.5 4.1 65 2.8 WNW 19 32 10 17 - - 0.0
18/12:00am 10.7 5.2 4.0 63 3.0 WNW 22 37 12 20 - - 0.0
 
Date/Time
EST
Temp
°C
App
Temp
°C
Dew
Point
°C
Rel
Hum
%
Delta-T
°C
Wind Press
QNH
hPa
Press
MSL
hPa
Rain since
9am
mm
Dir  Spd
km/h
Gust
km/h
Spd
kts
Gust
kts
17/11:30pm 10.7 5.1 3.5 61 3.2 WNW 22 33 12 18 - - 0.0
17/11:00pm 10.6 5.3 3.2 60 3.2 WNW 20 33 11 18 - - 0.0
17/10:30pm 10.7 5.6 2.8 58 3.4 WNW 19 33 10 18 - - 0.0
17/10:00pm 11.0 5.9 2.8 57 3.5 WNW 19 35 10 19 - - 0.0
17/09:30pm 11.1 4.6 2.9 57 3.6 WNW 26 44 14 24 - - 0.0
17/09:00pm 11.1 6.0 2.9 57 3.6 WNW 19 35 10 19 - - 0.0
17/08:30pm 11.3 6.6 2.9 56 3.7 WNW 17 32 9 17 - - 0.0
17/08:00pm 11.4 6.6 2.7 55 3.8 WNW 17 39 9 21 - - 0.0
17/07:30pm 11.1 7.4 2.4 55 3.7 NW 11 24 6 13 - - 0.0
17/07:00pm 11.4 6.9 2.2 53 3.9 NW 15 30 8 16 - - 0.0
17/06:30pm 11.4 7.3 2.2 53 3.9 NW 13 20 7 11 - - 0.0
17/06:00pm 11.7 8.0 2.2 52 4.1 WNW 11 32 6 17 - - 0.0
17/05:30pm 11.9 7.7 1.8 50 4.3 WNW 13 20 7 11 - - 0.0
17/05:00pm 12.2 7.3 1.8 49 4.4 WNW 17 28 9 15 - - 0.0
17/04:39pm 12.8 5.7 1.5 46 4.8 W 28 50 15 27 - - 0.0
17/04:30pm 12.8 6.5 1.8 47 4.7 W 24 43 13 23 - - 0.0
17/04:00pm 13.7 7.8 1.4 43 5.3 WNW 22 41 12 22 - - 0.0

Other Formats:

Comma delimited format used in spreadsheet applications
http://www.bom.gov.au/fwo/IDN60801/IDN60801.94782.axf

JavaScript Object Notation format (JSON) in row-major order
http://www.bom.gov.au/fwo/IDN60801/IDN60801.94782.json